createdAt,value
2023-03-08T00:04:24.801Z,10.40
2023-03-08T00:09:27.050Z,10.32
2023-03-08T00:14:29.107Z,10.29
2023-03-08T00:19:31.599Z,10.17
2023-03-08T00:24:34.567Z,10.17
2023-03-08T00:29:36.760Z,10.17
2023-03-08T00:34:38.905Z,10.16
2023-03-08T00:39:41.695Z,10.10
2023-03-08T00:44:43.872Z,9.96
2023-03-08T00:49:47.114Z,10.02
2023-03-08T00:54:49.691Z,9.96
2023-03-08T00:59:51.660Z,9.99
2023-03-08T01:04:53.840Z,9.93
2023-03-08T01:09:56.729Z,9.90
2023-03-08T01:14:59.104Z,9.84
2023-03-08T01:20:01.199Z,9.75
2023-03-08T01:25:03.580Z,9.81
2023-03-08T01:30:07.284Z,9.78
2023-03-08T01:35:10.724Z,9.78
2023-03-08T01:40:16.437Z,9.79
2023-03-08T01:45:55.970Z,9.76
2023-03-08T01:50:59.476Z,9.64
2023-03-08T01:56:01.996Z,9.72
2023-03-08T02:01:04.034Z,9.70
2023-03-08T02:06:07.350Z,9.76
2023-03-08T02:11:10.799Z,9.75
2023-03-08T02:16:14.796Z,9.80
2023-03-08T02:21:17.079Z,9.90
2023-03-08T02:26:19.522Z,9.91
2023-03-08T02:31:21.684Z,9.97
2023-03-08T02:36:23.737Z,10.00
2023-03-08T02:41:25.878Z,10.06
2023-03-08T02:46:27.880Z,10.12
2023-03-08T02:51:30.401Z,10.18
2023-03-08T02:56:34.430Z,10.23
2023-03-08T03:01:37.113Z,10.28
2023-03-08T03:06:41.032Z,10.34
2023-03-08T03:11:43.921Z,10.41
2023-03-08T03:16:46.178Z,10.38
2023-03-08T03:21:48.458Z,10.49
2023-03-08T03:26:51.556Z,10.49
2023-03-08T03:31:54.890Z,10.50
2023-03-08T03:36:57.067Z,10.60
2023-03-08T03:41:59.489Z,10.58
2023-03-08T03:47:02.185Z,10.52
2023-03-08T03:52:05.515Z,10.48
2023-03-08T03:57:14.617Z,10.46
2023-03-08T04:02:18.016Z,10.33
2023-03-08T04:07:27.480Z,10.39
2023-03-08T04:12:35.343Z,10.36
2023-03-08T04:17:37.674Z,10.30
2023-03-08T04:22:39.890Z,10.28
2023-03-08T04:27:50.204Z,10.22
2023-03-08T04:32:52.460Z,10.22
2023-03-08T04:37:57.463Z,10.20
2023-03-08T04:43:02.383Z,10.20
2023-03-08T04:48:10.809Z,10.18
2023-03-08T04:53:13.421Z,10.23
2023-03-08T04:58:22.156Z,9.94
2023-03-08T05:03:24.459Z,9.70
2023-03-08T05:08:26.563Z,9.67
2023-03-08T05:13:31.648Z,9.50
2023-03-08T05:18:35.935Z,9.51
2023-03-08T05:23:38.614Z,9.47
2023-03-08T05:28:44.729Z,9.45
2023-03-08T05:33:51.150Z,9.47
2023-03-08T05:38:59.719Z,9.48
2023-03-08T05:44:10.482Z,9.40
2023-03-08T05:49:14.497Z,9.46
2023-03-08T05:54:16.932Z,9.44
2023-03-08T05:59:22.119Z,9.42
2023-03-08T06:04:24.923Z,9.44
2023-03-08T06:09:27.257Z,9.47
2023-03-08T06:14:31.426Z,9.34
2023-03-08T06:19:33.852Z,9.44
2023-03-08T06:24:36.476Z,9.31
2023-03-08T06:29:42.396Z,9.43
2023-03-08T06:34:47.477Z,9.38
2023-03-08T06:39:50.002Z,9.39
2023-03-08T06:44:52.682Z,9.27
2023-03-08T06:49:54.806Z,9.40
2023-03-08T06:54:57.037Z,9.46
2023-03-08T06:59:59.615Z,9.49
2023-03-08T07:05:01.611Z,9.58
2023-03-08T07:10:04.806Z,9.62
2023-03-08T07:15:08.486Z,9.63
2023-03-08T07:20:13.292Z,9.74
2023-03-08T07:25:17.564Z,9.87
2023-03-08T07:30:19.979Z,9.97
2023-03-08T07:35:22.205Z,10.03
2023-03-08T07:40:24.349Z,10.15
2023-03-08T07:45:26.599Z,10.23
2023-03-08T07:50:29.089Z,10.31
2023-03-08T07:55:31.175Z,10.45
2023-03-08T08:00:33.738Z,10.79
2023-03-08T08:05:36.870Z,10.85
2023-03-08T08:10:38.873Z,10.89
2023-03-08T08:15:41.429Z,10.98
2023-03-08T08:20:44.602Z,11.05
2023-03-08T08:25:51.282Z,11.00
2023-03-08T08:31:14.520Z,11.12
2023-03-08T08:36:18.895Z,11.18
2023-03-08T08:41:22.193Z,11.15
2023-03-08T08:46:24.675Z,11.36
2023-03-08T08:51:27.308Z,11.52
2023-03-08T08:56:30.515Z,11.68
2023-03-08T09:01:37.274Z,11.74
2023-03-08T09:06:39.940Z,11.96
2023-03-08T09:11:53.669Z,12.02
2023-03-08T09:16:57.748Z,12.37
2023-03-08T09:22:00.267Z,12.64
2023-03-08T09:27:05.623Z,12.61
2023-03-08T09:32:08.156Z,12.61
2023-03-08T09:37:11.947Z,12.68
2023-03-08T09:42:33.973Z,12.67
2023-03-08T09:47:50.154Z,12.53
2023-03-08T09:53:00.288Z,12.77
2023-03-08T09:58:06.456Z,12.82
2023-03-08T10:03:47.842Z,13.09
2023-03-08T10:08:53.318Z,13.25
2023-03-08T10:13:57.501Z,14.14
2023-03-08T10:19:20.576Z,15.32
2023-03-08T10:24:38.048Z,15.60
2023-03-08T10:29:39.919Z,15.13
2023-03-08T10:34:42.243Z,15.26
2023-03-08T10:39:53.534Z,15.57
2023-03-08T10:44:55.506Z,15.18
2023-03-08T10:50:28.096Z,14.85
2023-03-08T10:55:31.964Z,14.67
2023-03-08T11:00:37.279Z,15.02
2023-03-08T11:05:39.645Z,15.84
2023-03-08T11:10:41.973Z,16.30
2023-03-08T11:15:52.493Z,16.14
2023-03-08T11:21:03.509Z,15.82
2023-03-08T11:26:25.557Z,16.25
2023-03-08T11:31:40.615Z,16.20
2023-03-08T11:37:11.275Z,16.20
2023-03-08T11:42:19.431Z,16.50
2023-03-08T11:47:34.434Z,16.71
2023-03-08T11:52:40.198Z,16.68
2023-03-08T11:57:45.939Z,16.70
2023-03-08T12:02:49.258Z,16.41
2023-03-08T12:08:00.136Z,16.28
2023-03-08T12:13:05.305Z,16.52
2023-03-08T12:18:22.121Z,16.74
2023-03-08T12:23:29.956Z,16.63
2023-03-08T12:28:58.607Z,16.53
2023-03-08T12:34:00.888Z,16.53
2023-03-08T12:39:08.096Z,16.26
2023-03-08T12:44:42.635Z,16.45
2023-03-08T12:49:51.267Z,16.60
2023-03-08T12:55:31.354Z,16.44
2023-03-08T13:00:36.151Z,16.56
2023-03-08T13:05:39.847Z,16.49
2023-03-08T13:10:51.012Z,16.55
2023-03-08T13:16:08.207Z,16.35
2023-03-08T13:21:35.730Z,16.43
2023-03-08T13:27:08.572Z,16.39
2023-03-08T13:32:20.103Z,16.24
2023-03-08T13:37:24.446Z,16.22
2023-03-08T13:42:28.495Z,15.91
2023-03-08T13:47:34.565Z,15.87
2023-03-08T13:52:38.433Z,15.69
2023-03-08T13:57:42.397Z,15.64
2023-03-08T14:02:46.952Z,15.81
2023-03-08T14:08:03.591Z,15.87
2023-03-08T14:13:06.430Z,15.68
2023-03-08T14:18:19.905Z,15.78
2023-03-08T14:23:24.321Z,15.81
2023-03-08T14:28:40.916Z,15.84
2023-03-08T14:33:43.469Z,15.84
2023-03-08T14:38:49.582Z,15.91
2023-03-08T14:43:52.274Z,15.82
2023-03-08T14:48:59.452Z,15.77
2023-03-08T14:54:03.848Z,15.84
2023-03-08T14:59:06.200Z,16.03
2023-03-08T15:04:19.633Z,16.15
2023-03-08T15:09:22.722Z,16.18
2023-03-08T15:14:24.891Z,16.23
2023-03-08T15:19:27.699Z,16.18
2023-03-08T15:24:29.826Z,16.22
2023-03-08T15:29:33.863Z,16.12
2023-03-08T15:34:36.149Z,16.15
2023-03-08T15:39:38.148Z,16.05
2023-03-08T15:44:41.092Z,16.12
2023-03-08T15:49:43.488Z,16.06
2023-03-08T15:54:47.986Z,16.02
2023-03-08T15:59:51.254Z,15.92
2023-03-08T16:04:55.970Z,15.86
2023-03-08T16:09:58.359Z,15.92
2023-03-08T16:15:00.823Z,15.77
2023-03-08T16:20:06.556Z,15.81
2023-03-08T16:25:13.929Z,15.71
2023-03-08T16:30:21.440Z,15.73
2023-03-08T16:35:23.963Z,15.77
2023-03-08T16:40:31.359Z,15.69
2023-03-08T16:45:33.766Z,15.66
2023-03-08T16:50:36.333Z,15.64
2023-03-08T16:55:41.517Z,15.57
2023-03-08T17:00:45.074Z,15.49
2023-03-08T17:05:48.231Z,15.52
2023-03-08T17:10:50.360Z,15.49
2023-03-08T17:15:52.529Z,15.43
2023-03-08T17:20:54.732Z,15.44
2023-03-08T17:25:58.205Z,15.39
2023-03-08T17:31:00.989Z,15.26
2023-03-08T17:36:05.468Z,15.23
2023-03-08T17:41:14.543Z,15.06
2023-03-08T17:46:22.172Z,14.96
2023-03-08T17:51:28.340Z,14.94
2023-03-08T17:56:32.632Z,14.87
2023-03-08T18:01:34.844Z,14.77
2023-03-08T18:06:39.774Z,14.69
2023-03-08T18:11:42.502Z,14.60
2023-03-08T18:16:45.170Z,14.55
2023-03-08T18:21:54.778Z,14.50
2023-03-08T18:26:58.482Z,14.49
2023-03-08T18:32:01.383Z,14.41
2023-03-08T18:37:04.134Z,14.32
2023-03-08T18:42:06.318Z,14.32
2023-03-08T18:47:08.755Z,14.21
2023-03-08T18:52:11.747Z,14.20
2023-03-08T18:57:13.733Z,14.14
2023-03-08T19:02:21.412Z,13.99
2023-03-08T19:07:23.845Z,13.90
2023-03-08T19:12:26.217Z,13.88
2023-03-08T19:17:28.358Z,13.87
2023-03-08T19:22:30.750Z,13.76
2023-03-08T19:27:35.856Z,13.79
2023-03-08T19:32:37.885Z,13.76
2023-03-08T19:37:40.431Z,13.75
2023-03-08T19:42:42.444Z,13.75
2023-03-08T19:47:44.394Z,13.69
2023-03-08T19:52:46.727Z,13.68
2023-03-08T19:57:48.786Z,13.70
2023-03-08T20:02:50.890Z,13.61
2023-03-08T20:07:52.797Z,13.67
2023-03-08T20:12:54.990Z,13.65
2023-03-08T20:17:57.794Z,13.57
2023-03-08T20:23:00.822Z,13.63
2023-03-08T20:28:03.423Z,13.56
2023-03-08T20:33:05.935Z,13.55
2023-03-08T20:38:09.159Z,13.52
2023-03-08T20:43:11.367Z,13.44
2023-03-08T20:48:13.491Z,13.44
2023-03-08T20:53:15.957Z,13.43
2023-03-08T20:58:18.261Z,13.40
2023-03-08T21:03:20.307Z,13.42
2023-03-08T21:08:24.410Z,13.44
2023-03-08T21:13:26.541Z,13.52
2023-03-08T21:18:28.779Z,13.49
2023-03-08T21:23:30.840Z,13.51
2023-03-08T21:28:33.436Z,13.52
2023-03-08T21:33:35.406Z,13.45
2023-03-08T21:38:37.730Z,13.40
2023-03-08T21:43:39.877Z,13.30
2023-03-08T21:48:42.134Z,13.32
2023-03-08T21:53:44.903Z,13.23
2023-03-08T21:58:47.451Z,13.29
2023-03-08T22:03:50.599Z,13.23
2023-03-08T22:08:53.655Z,13.11
2023-03-08T22:13:57.651Z,13.03
2023-03-08T22:19:02.461Z,12.94
2023-03-08T22:24:05.118Z,12.84
2023-03-08T22:29:07.551Z,12.73
2023-03-08T22:34:12.000Z,12.62
2023-03-08T22:39:14.494Z,12.71
2023-03-08T22:44:16.897Z,12.71
2023-03-08T22:49:19.005Z,12.71
2023-03-08T22:54:22.874Z,12.72
2023-03-08T22:59:25.858Z,12.73
2023-03-08T23:04:28.113Z,12.71
2023-03-08T23:09:31.975Z,12.65
2023-03-08T23:14:36.060Z,12.61
2023-03-08T23:19:45.180Z,12.56
2023-03-08T23:24:47.209Z,12.55
2023-03-08T23:29:52.606Z,12.54
2023-03-08T23:34:54.749Z,12.53
2023-03-08T23:39:56.884Z,12.56
2023-03-08T23:44:59.126Z,12.61
2023-03-08T23:50:03.074Z,12.62
2023-03-08T23:55:05.909Z,12.68
